Danxian, Hainan

6:27 PM CST on September 30, 2016 (GMT +0800)
Haikou | | Change Station

Elev 75 ft 19.93 °N, 110.46 °E | Updated 27 minutes ago

Mostly Cloudy
Mostly Cloudy
75 °F
Feels Like 75 °F
N
4
Wind Variable Wind from NE

Today
High -- | Low -- °F
--% Chance of Precip.
Yesterday
High -- | Low -- °F
Precip. -- in
Pressure 29.71 in
Visibility 6.2 miles
Clouds Mostly Cloudy 4000 ft
Dew Point 66 °F
Humidity 73%
Rainfall 0.00 in
Snow Depth Not available.
6:32 AM 6:30 PM
Waning Crescent, 0% visible
METAR ZJHK 301000Z 04002MPS 360V080 9999 BKN040 24/19 Q1006 NOSIG
Pressure 29.71 in
Visibility 6.2 miles
Clouds Mostly Cloudy 4000 ft
Dew Point 66 °F
Humidity 73%
Rainfall 0.00 in
Snow Depth Not available.
6:32 AM 6:30 PM
Waning Crescent, 0% visible
METAR ZJHK 301000Z 04002MPS 360V080 9999 BKN040 24/19 Q1006 NOSIG

10-Day Weather Forecast

No radar image for this location.
×

Almanac

Astronomy

Sep. 30, 2016 Rise Set
Actual Time
Civil Twilight
Nautical Twilight
Astronomical Twilight
Moon
Length of Visible Light
Length of Day
Tomorrow will be .
, % of the Moon is Illuminated

Today's Extremes

Country Highs Country Lows

Community

WunderPhotos

Upload Photos

1,942,687 photos uploaded!

WunderBlog® & News

Nearby

Air Quality

  Air Quality AQ Index Pollutant
Not available.

Snow Depth

Station Depth Elevation

Earthquake Activity

City Distance Mag. Time & Date
Minimum magnitude displayed is 2.5.

Coastal Water Temperatures

Place Temperature

Stations

Nearby Weather Stations

Station Location Temp. Windchill Dew Point Humidity Wind Precip. Elev Updated Type